createdAt,value
2023-03-22T00:00:12.990Z,92.40
2023-03-22T00:03:01.368Z,92.40
2023-03-22T00:05:49.211Z,92.50
2023-03-22T00:08:35.307Z,92.50
2023-03-22T00:11:26.022Z,92.70
2023-03-22T00:14:11.553Z,92.80
2023-03-22T00:17:00.433Z,92.90
2023-03-22T00:19:46.416Z,93.00
2023-03-22T00:22:32.569Z,92.90
2023-03-22T00:25:18.398Z,93.00
2023-03-22T00:28:03.638Z,93.00
2023-03-22T00:30:54.647Z,93.10
2023-03-22T00:33:40.074Z,93.30
2023-03-22T00:36:31.139Z,93.40
2023-03-22T00:39:16.491Z,93.50
2023-03-22T00:42:07.253Z,93.50
2023-03-22T00:44:52.645Z,93.50
2023-03-22T00:47:39.243Z,93.50
2023-03-22T00:50:25.591Z,93.50
2023-03-22T00:53:10.685Z,93.50
2023-03-22T00:55:59.312Z,93.70
2023-03-22T00:58:45.986Z,93.60
2023-03-22T01:01:32.396Z,93.50
2023-03-22T01:04:25.723Z,93.30
2023-03-22T01:07:11.508Z,93.20
2023-03-22T01:09:56.849Z,93.20
2023-03-22T01:12:42.243Z,93.00
2023-03-22T01:15:28.065Z,92.90
2023-03-22T01:18:16.246Z,92.80
2023-03-22T01:21:02.992Z,92.80
2023-03-22T01:23:48.595Z,92.90
2023-03-22T01:26:34.278Z,92.90
2023-03-22T01:29:21.049Z,93.00
2023-03-22T01:32:07.362Z,92.90
2023-03-22T01:34:53.935Z,93.00
2023-03-22T01:37:39.454Z,93.00
2023-03-22T01:40:26.512Z,92.90
2023-03-22T01:43:17.192Z,92.90
2023-03-22T01:46:04.084Z,92.90
2023-03-22T01:48:50.181Z,92.90
2023-03-22T01:51:36.153Z,92.80
2023-03-22T01:54:45.365Z,92.80
2023-03-22T01:57:55.719Z,92.90
2023-03-22T02:00:56.930Z,92.90
2023-03-22T02:04:16.392Z,93.00
2023-03-22T02:07:09.741Z,93.00
2023-03-22T02:09:56.786Z,93.00
2023-03-22T02:12:49.567Z,93.00
2023-03-22T02:15:51.647Z,93.00
2023-03-22T02:19:22.150Z,93.10
2023-03-22T02:22:24.107Z,93.10
2023-03-22T02:25:33.857Z,93.20
2023-03-22T02:29:08.164Z,93.30
2023-03-22T02:32:14.533Z,93.30
2023-03-22T02:35:11.244Z,93.40
2023-03-22T02:38:37.128Z,93.50
2023-03-22T02:41:47.885Z,93.60
2023-03-22T02:44:54.780Z,94.00
2023-03-22T02:48:00.623Z,93.90
2023-03-22T02:50:55.196Z,94.00
2023-03-22T02:53:47.317Z,94.40
2023-03-22T02:56:41.169Z,94.60
2023-03-22T02:59:31.396Z,94.70
2023-03-22T03:02:19.700Z,94.60
2023-03-22T03:05:06.549Z,94.60
2023-03-22T03:07:59.437Z,94.50
2023-03-22T03:10:47.465Z,94.50
2023-03-22T03:13:33.247Z,94.50
2023-03-22T03:16:21.697Z,94.50
2023-03-22T03:19:15.530Z,94.70
2023-03-22T03:22:18.467Z,94.50
2023-03-22T03:25:31.686Z,94.60
2023-03-22T03:28:47.313Z,94.80
2023-03-22T03:31:49.997Z,94.80
2023-03-22T03:34:49.581Z,94.80
2023-03-22T03:37:44.045Z,94.80
2023-03-22T03:40:32.952Z,94.90
2023-03-22T03:43:20.365Z,94.90
2023-03-22T03:46:07.585Z,94.90
2023-03-22T03:48:54.919Z,94.90
2023-03-22T03:51:49.198Z,95.10
2023-03-22T03:54:35.031Z,95.10
2023-03-22T03:57:22.263Z,95.10
2023-03-22T04:00:09.458Z,95.30
2023-03-22T04:03:13.851Z,95.30
2023-03-22T04:06:34.761Z,95.40
2023-03-22T04:09:32.274Z,95.40
2023-03-22T04:12:38.539Z,95.40
2023-03-22T04:15:32.785Z,95.30
2023-03-22T04:18:21.731Z,95.10
2023-03-22T04:21:07.851Z,95.10
2023-03-22T04:24:03.997Z,95.10
2023-03-22T04:26:54.859Z,95.30
2023-03-22T04:29:51.121Z,94.80
2023-03-22T04:32:52.283Z,94.80
2023-03-22T04:35:46.267Z,94.60
2023-03-22T04:38:32.206Z,94.40
2023-03-22T04:41:18.969Z,94.40
2023-03-22T04:44:09.063Z,94.20
2023-03-22T04:46:59.293Z,94.20
2023-03-22T04:49:44.866Z,94.00
2023-03-22T04:52:33.775Z,93.90
2023-03-22T04:55:20.478Z,93.90
2023-03-22T04:58:06.139Z,93.80
2023-03-22T05:00:53.241Z,93.70
2023-03-22T05:03:49.843Z,93.80
2023-03-22T05:06:40.221Z,93.80
2023-03-22T05:09:31.558Z,93.70
2023-03-22T05:12:17.222Z,93.40
2023-03-22T05:15:09.211Z,93.30
2023-03-22T05:17:56.868Z,93.10
2023-03-22T05:20:46.234Z,93.20
2023-03-22T05:23:38.530Z,93.10
2023-03-22T05:26:26.686Z,93.00
2023-03-22T05:29:17.708Z,93.00
2023-03-22T05:32:25.501Z,92.70
2023-03-22T05:35:12.960Z,92.60
2023-03-22T05:38:04.268Z,92.20
2023-03-22T05:40:51.836Z,91.90
2023-03-22T05:43:38.294Z,91.90
2023-03-22T05:46:24.235Z,91.80
2023-03-22T05:49:31.245Z,91.60
2023-03-22T05:52:16.820Z,91.10
2023-03-22T05:55:10.551Z,91.20
2023-03-22T05:57:58.982Z,91.20
2023-03-22T06:00:51.870Z,91.10
2023-03-22T06:03:43.699Z,91.00
2023-03-22T06:06:43.312Z,90.90
2023-03-22T06:09:37.317Z,91.20
2023-03-22T06:12:28.907Z,90.70
2023-03-22T06:15:21.669Z,90.30
2023-03-22T06:18:18.302Z,90.40
2023-03-22T06:21:10.564Z,90.20
2023-03-22T06:23:58.589Z,89.80
2023-03-22T06:26:44.181Z,89.60
2023-03-22T06:29:29.742Z,89.30
2023-03-22T06:32:18.322Z,89.30
2023-03-22T06:35:04.853Z,89.40
2023-03-22T06:37:51.771Z,88.80
2023-03-22T06:40:37.932Z,88.90
2023-03-22T06:43:24.091Z,89.20
2023-03-22T06:46:15.328Z,89.00
2023-03-22T06:49:11.588Z,88.20
2023-03-22T06:52:01.798Z,87.90
2023-03-22T06:54:51.390Z,88.70
2023-03-22T06:57:36.682Z,88.70
2023-03-22T07:00:22.561Z,88.60
2023-03-22T07:03:07.951Z,88.50
2023-03-22T07:06:16.928Z,88.20
2023-03-22T07:09:09.194Z,87.70
2023-03-22T07:11:55.759Z,87.30
2023-03-22T07:14:42.085Z,87.30
2023-03-22T07:17:51.913Z,87.30
2023-03-22T07:20:38.773Z,87.10
2023-03-22T07:23:24.782Z,87.10
2023-03-22T07:26:13.535Z,87.00
2023-03-22T07:29:04.577Z,86.60
2023-03-22T07:31:52.332Z,86.20
2023-03-22T07:34:44.180Z,85.10
2023-03-22T07:37:46.376Z,84.50
2023-03-22T07:40:41.373Z,84.20
2023-03-22T07:43:27.797Z,83.70
2023-03-22T07:46:15.352Z,83.70
2023-03-22T07:49:18.825Z,83.50
2023-03-22T07:52:21.870Z,83.20
2023-03-22T07:55:08.975Z,83.70
2023-03-22T07:58:01.285Z,84.10
2023-03-22T08:00:49.403Z,84.60
2023-03-22T08:04:00.537Z,84.70
2023-03-22T08:07:00.623Z,85.90
2023-03-22T08:09:46.796Z,86.90
2023-03-22T08:12:32.822Z,87.30
2023-03-22T08:15:27.039Z,87.10
2023-03-22T08:18:13.429Z,86.60
2023-03-22T08:21:02.018Z,86.40
2023-03-22T08:23:51.354Z,86.20
2023-03-22T08:26:56.247Z,85.40
2023-03-22T08:29:49.094Z,85.70
2023-03-22T08:32:34.991Z,86.70
2023-03-22T08:35:22.341Z,87.40
2023-03-22T08:38:09.473Z,88.70
2023-03-22T08:41:03.478Z,89.30
2023-03-22T08:43:48.871Z,89.80
2023-03-22T08:46:34.434Z,90.40
2023-03-22T08:49:21.823Z,91.00
2023-03-22T08:52:16.808Z,91.20
2023-03-22T08:55:12.485Z,91.60
2023-03-22T08:58:28.310Z,91.70
2023-03-22T09:01:41.430Z,92.10
2023-03-22T09:04:28.786Z,92.30
2023-03-22T09:07:14.461Z,92.20
2023-03-22T09:10:04.135Z,92.50
2023-03-22T09:12:50.558Z,92.50
2023-03-22T09:15:36.483Z,92.60
2023-03-22T09:18:38.504Z,92.90
2023-03-22T09:21:29.838Z,93.10
2023-03-22T09:24:25.745Z,93.30
2023-03-22T09:27:13.877Z,93.50
2023-03-22T09:30:00.303Z,93.20
2023-03-22T09:32:45.537Z,93.60
2023-03-22T09:35:34.009Z,93.40
2023-03-22T09:38:25.361Z,93.60
2023-03-22T09:41:25.548Z,93.90
2023-03-22T09:44:17.140Z,94.00
2023-03-22T09:47:07.223Z,93.80
2023-03-22T09:49:59.193Z,93.90
2023-03-22T09:52:45.080Z,94.00
2023-03-22T09:55:41.692Z,94.00
2023-03-22T09:58:33.489Z,94.30
2023-03-22T10:01:35.724Z,94.30
2023-03-22T10:04:26.485Z,94.00
2023-03-22T10:07:20.775Z,94.30
2023-03-22T10:10:18.810Z,94.30
2023-03-22T10:13:30.648Z,94.60
2023-03-22T10:16:29.609Z,94.70
2023-03-22T10:19:29.298Z,95.10
2023-03-22T10:22:18.872Z,95.00
2023-03-22T10:25:07.346Z,95.20
2023-03-22T10:27:52.940Z,95.30
2023-03-22T10:30:41.168Z,95.20
2023-03-22T10:33:54.606Z,94.90
2023-03-22T10:36:44.585Z,95.20
2023-03-22T10:39:41.440Z,95.30
2023-03-22T10:42:30.159Z,95.50
2023-03-22T10:45:16.201Z,95.40
2023-03-22T10:48:11.835Z,95.20
2023-03-22T10:51:01.419Z,95.20
2023-03-22T10:53:52.687Z,95.00
2023-03-22T10:56:37.840Z,94.80
2023-03-22T10:59:49.367Z,94.80
2023-03-22T11:02:35.570Z,94.20
2023-03-22T11:05:26.838Z,93.70
2023-03-22T11:08:15.604Z,93.80
2023-03-22T11:11:03.821Z,93.80
2023-03-22T11:13:59.628Z,93.50
2023-03-22T11:16:51.599Z,93.00
2023-03-22T11:19:42.570Z,92.40
2023-03-22T11:22:40.552Z,91.70
2023-03-22T11:25:35.437Z,91.90
2023-03-22T11:28:26.048Z,91.80
2023-03-22T11:31:17.354Z,91.90
2023-03-22T11:34:02.778Z,91.60
2023-03-22T11:36:56.519Z,91.20
2023-03-22T11:39:48.217Z,91.40
2023-03-22T11:42:34.839Z,91.30
2023-03-22T11:45:33.783Z,91.60
2023-03-22T11:48:25.355Z,91.60
2023-03-22T11:51:26.473Z,91.30
2023-03-22T11:54:34.185Z,91.10
2023-03-22T11:57:24.710Z,90.90
2023-03-22T12:00:20.385Z,91.10
2023-03-22T12:03:20.062Z,91.20
2023-03-22T12:06:17.471Z,90.90
2023-03-22T12:09:28.070Z,90.80
2023-03-22T12:12:24.230Z,91.10
2023-03-22T12:15:25.871Z,90.80
2023-03-22T12:18:24.561Z,90.40
2023-03-22T12:21:13.679Z,90.60
2023-03-22T12:24:04.391Z,90.60
2023-03-22T12:26:52.890Z,90.70
2023-03-22T12:29:54.037Z,90.60
2023-03-22T12:32:54.163Z,90.60
2023-03-22T12:35:44.146Z,90.70
2023-03-22T12:38:48.373Z,90.70
2023-03-22T12:41:40.366Z,90.50
2023-03-22T12:44:40.461Z,90.40
2023-03-22T12:47:42.835Z,90.40
2023-03-22T12:50:39.036Z,90.00
2023-03-22T12:53:34.712Z,90.20
2023-03-22T12:56:39.913Z,90.20
2023-03-22T12:59:31.428Z,90.20
2023-03-22T13:02:31.249Z,90.00
2023-03-22T13:05:18.265Z,90.00
2023-03-22T13:08:05.515Z,89.20
2023-03-22T13:11:04.491Z,89.00
2023-03-22T13:13:53.359Z,89.50
2023-03-22T13:17:09.514Z,89.30
2023-03-22T13:20:07.996Z,89.20
2023-03-22T13:23:01.583Z,89.10
2023-03-22T13:26:02.220Z,88.90
2023-03-22T13:29:15.344Z,88.90
2023-03-22T13:32:04.966Z,89.30
2023-03-22T13:34:53.016Z,89.50
2023-03-22T13:37:48.570Z,88.70
2023-03-22T13:40:51.768Z,88.50
2023-03-22T13:43:40.018Z,88.60
2023-03-22T13:46:25.749Z,88.70
2023-03-22T13:49:34.506Z,89.00
2023-03-22T13:52:33.122Z,89.00
2023-03-22T13:55:37.441Z,88.60
2023-03-22T13:58:52.310Z,88.90
2023-03-22T14:01:49.398Z,88.80
2023-03-22T14:04:42.577Z,89.10
2023-03-22T14:07:40.201Z,89.10
2023-03-22T14:10:33.382Z,89.40
2023-03-22T14:13:45.723Z,89.00
2023-03-22T14:16:42.096Z,89.40
2023-03-22T14:19:34.328Z,89.10
